createdAt,value
2017-02-26T00:00:53.540Z,72.08
2017-02-26T00:02:03.546Z,72.08
2017-02-26T00:03:14.340Z,72.27
2017-02-26T00:04:24.736Z,72.14
2017-02-26T00:05:35.139Z,72.17
2017-02-26T00:06:45.133Z,72.27
2017-02-26T00:07:55.926Z,72.27
2017-02-26T00:09:05.937Z,72.23
2017-02-26T00:10:16.780Z,72.23
2017-02-26T00:11:27.543Z,72.14
2017-02-26T00:12:38.312Z,72.14
2017-02-26T00:13:47.887Z,71.95
2017-02-26T00:14:58.274Z,71.95
2017-02-26T00:16:09.068Z,72.61
2017-02-26T00:17:19.050Z,72.04
2017-02-26T00:18:29.826Z,71.85
2017-02-26T00:19:39.424Z,71.85
2017-02-26T00:20:50.234Z,72.61
2017-02-26T00:22:01.026Z,72.61
2017-02-26T00:23:11.406Z,71.85
2017-02-26T00:24:22.189Z,71.85
2017-02-26T00:25:32.610Z,72.61
2017-02-26T00:26:43.056Z,71.85
2017-02-26T00:27:53.516Z,71.85
2017-02-26T00:29:03.541Z,72.04
2017-02-26T00:30:14.357Z,72.04
2017-02-26T00:31:25.149Z,72.14
2017-02-26T00:32:35.945Z,72.14
2017-02-26T00:33:46.333Z,71.95
2017-02-26T00:34:56.737Z,72.04
2017-02-26T00:36:07.523Z,72.14
2017-02-26T00:37:17.935Z,72.14
2017-02-26T00:38:28.739Z,72.14
2017-02-26T00:39:38.721Z,72.04
2017-02-26T00:40:49.133Z,72.04
2017-02-26T00:41:59.925Z,72.14
2017-02-26T00:43:10.727Z,72.14
2017-02-26T00:44:21.502Z,72.14
2017-02-26T00:45:32.343Z,72.14
2017-02-26T00:46:42.339Z,72.23
2017-02-26T00:47:53.113Z,72.23
2017-02-26T00:49:03.908Z,72.33
2017-02-26T00:50:14.700Z,72.14
2017-02-26T00:51:24.699Z,71.76
2017-02-26T00:52:35.507Z,71.76
2017-02-26T00:53:45.892Z,72.19
2017-02-26T00:54:56.682Z,71.95
2017-02-26T00:56:07.066Z,72.14
2017-02-26T00:57:17.889Z,72.33
2017-02-26T00:58:28.665Z,72.48
2017-02-26T00:59:39.067Z,72.42
2017-02-26T01:00:48.697Z,71.85
2017-02-26T01:01:59.086Z,72.33
2017-02-26T01:03:09.496Z,71.95
2017-02-26T01:04:20.273Z,72.04
2017-02-26T01:05:30.270Z,71.66
2017-02-26T01:06:41.044Z,71.95
2017-02-26T01:07:51.025Z,72.14
2017-02-26T01:09:01.835Z,71.57
2017-02-26T01:10:12.625Z,71.95
2017-02-26T01:11:23.399Z,71.66
2017-02-26T01:12:34.216Z,71.66
2017-02-26T01:13:45.013Z,71.76
2017-02-26T01:14:55.810Z,72.04
2017-02-26T01:16:06.195Z,71.57
2017-02-26T01:17:16.991Z,71.66
2017-02-26T01:18:27.772Z,71.38
2017-02-26T01:19:38.575Z,71.85
2017-02-26T01:20:48.971Z,71.85
2017-02-26T01:21:59.741Z,71.95
2017-02-26T01:23:09.338Z,71.47
2017-02-26T01:24:20.131Z,71.85
2017-02-26T01:25:30.908Z,71.28
2017-02-26T01:26:40.880Z,71.28
2017-02-26T01:27:50.866Z,71.85
2017-02-26T01:29:01.256Z,71.28
2017-02-26T01:30:11.650Z,71.38
2017-02-26T01:31:21.659Z,71.85
2017-02-26T01:32:31.640Z,71.28
2017-02-26T01:33:41.643Z,71.38
2017-02-26T01:34:52.408Z,71.47
2017-02-26T01:36:03.184Z,71.85
2017-02-26T01:37:13.574Z,71.57
2017-02-26T01:38:24.350Z,71.85
2017-02-26T01:39:34.321Z,71.38
2017-02-26T01:40:44.686Z,71.28
2017-02-26T01:41:55.458Z,71.38
2017-02-26T01:43:05.849Z,71.66
2017-02-26T01:44:16.633Z,71.38
2017-02-26T01:45:27.013Z,71.38
2017-02-26T01:46:37.831Z,71.76
2017-02-26T01:47:47.804Z,71.47
2017-02-26T01:48:57.782Z,71.57
2017-02-26T01:50:08.169Z,71.95
2017-02-26T01:51:18.542Z,72.04
2017-02-26T01:52:28.504Z,72.04
2017-02-26T01:53:39.299Z,72.04
2017-02-26T01:54:49.681Z,71.66
2017-02-26T01:56:00.452Z,71.85
2017-02-26T01:57:10.466Z,71.85
2017-02-26T01:58:21.255Z,71.66
2017-02-26T01:59:31.219Z,71.7
2017-02-26T02:00:41.605Z,71.76
2017-02-26T02:01:52.431Z,71.76
2017-02-26T02:03:02.874Z,71.95
2017-02-26T02:04:13.660Z,72.52
2017-02-26T02:05:24.428Z,72.14
2017-02-26T02:06:34.837Z,72.23
2017-02-26T02:07:45.605Z,72.33
2017-02-26T02:08:56.382Z,72.14
2017-02-26T02:10:07.177Z,72.14
2017-02-26T02:11:17.998Z,72.23
2017-02-26T02:12:28.388Z,72.14
2017-02-26T02:13:37.969Z,72.04
2017-02-26T02:14:47.940Z,72.04
2017-02-26T02:15:57.920Z,71.85
2017-02-26T02:17:08.709Z,72.52
2017-02-26T02:18:18.302Z,72.8
2017-02-26T02:19:29.068Z,72.89
2017-02-26T02:20:39.465Z,72.8
2017-02-26T02:21:49.865Z,72.61
2017-02-26T02:23:00.237Z,72.52
2017-02-26T02:24:10.624Z,72.52
2017-02-26T02:25:21.004Z,72.61
2017-02-26T02:26:30.968Z,72.52
2017-02-26T02:27:41.342Z,72.71
2017-02-26T02:28:51.729Z,72.52
2017-02-26T02:30:02.107Z,72.8
2017-02-26T02:31:12.498Z,72.8
2017-02-26T02:32:23.296Z,72.61
2017-02-26T02:33:34.072Z,72.52
2017-02-26T02:34:44.445Z,72.04
2017-02-26T02:35:55.213Z,72.04
2017-02-26T02:37:05.625Z,71.95
2017-02-26T02:38:16.394Z,72.04
2017-02-26T02:39:26.811Z,72.14
2017-02-26T02:40:37.584Z,72.23
2017-02-26T02:41:48.349Z,72.04
2017-02-26T02:42:58.753Z,72.14
2017-02-26T02:44:08.751Z,72.52
2017-02-26T02:45:19.130Z,71.85
2017-02-26T02:46:29.130Z,71.76
2017-02-26T02:47:39.917Z,72.04
2017-02-26T02:48:50.289Z,71.85
2017-02-26T02:50:01.041Z,71.85
2017-02-26T02:51:11.431Z,71.95
2017-02-26T02:52:22.226Z,72.23
2017-02-26T02:53:32.602Z,71.95
2017-02-26T02:54:42.985Z,72.52
2017-02-26T02:55:53.755Z,72.23
2017-02-26T02:57:03.764Z,72.33
2017-02-26T02:58:14.584Z,72.33
2017-02-26T02:59:24.993Z,72
2017-02-26T03:00:35.810Z,72.23
2017-02-26T03:31:58.348Z,70.35
2017-02-26T03:33:09.144Z,70.82
2017-02-26T03:34:19.551Z,72.05
2017-02-26T03:35:30.315Z,71.86
2017-02-26T03:36:41.100Z,72.99
2017-02-26T03:37:51.905Z,73.09
2017-02-26T03:39:02.706Z,73.69
2017-02-26T03:40:12.691Z,73.69
2017-02-26T03:41:23.475Z,74.36
2017-02-26T03:42:33.480Z,74.07
2017-02-26T03:43:43.846Z,74.26
2017-02-26T03:44:54.614Z,73.73
2017-02-26T03:46:05.375Z,73.45
2017-02-26T03:47:15.394Z,73.45
2017-02-26T03:48:25.384Z,73.64
2017-02-26T03:49:36.178Z,73.16
2017-02-26T03:50:46.146Z,73.39
2017-02-26T03:51:56.916Z,73.2
2017-02-26T03:53:07.691Z,73.11
2017-02-26T03:54:17.289Z,73.11
2017-02-26T03:55:28.061Z,72.44
2017-02-26T03:56:38.428Z,72.53
2017-02-26T03:57:48.791Z,72.82
2017-02-26T03:58:59.546Z,72.73
2017-02-26T04:00:09.935Z,72.77
2017-02-26T04:01:20.720Z,72.48
2017-02-26T04:02:31.495Z,72.67
2017-02-26T04:03:41.542Z,72.48
2017-02-26T04:04:51.911Z,72
2017-02-26T04:06:02.696Z,72.38
2017-02-26T04:07:12.685Z,72.19
2017-02-26T04:08:23.098Z,72.38
2017-02-26T04:09:33.894Z,72.57
2017-02-26T04:10:43.910Z,72.48
2017-02-26T04:11:54.345Z,72.52
2017-02-26T04:13:04.729Z,72.8
2017-02-26T04:14:15.114Z,72.52
2017-02-26T04:15:25.482Z,72.04
2017-02-26T04:16:35.862Z,71.95
2017-02-26T04:17:46.240Z,72.04
2017-02-26T04:18:56.649Z,72.14
2017-02-26T04:20:06.691Z,72.14
2017-02-26T04:21:17.079Z,72.04
2017-02-26T04:22:27.861Z,72.33
2017-02-26T04:23:38.218Z,71.95
2017-02-26T04:24:48.200Z,72.42
2017-02-26T04:25:58.593Z,72.23
2017-02-26T04:27:09.413Z,72.23
2017-02-26T04:28:19.776Z,72.33
2017-02-26T04:29:29.765Z,72.14
2017-02-26T04:30:40.209Z,72.23
2017-02-26T04:31:50.985Z,72.04
2017-02-26T04:33:00.977Z,72.04
2017-02-26T04:34:10.944Z,72.04
2017-02-26T04:35:21.721Z,72.04
2017-02-26T04:36:32.488Z,71.85
2017-02-26T04:37:43.285Z,71.85
2017-02-26T04:38:54.051Z,72.52
2017-02-26T04:40:04.838Z,72.71
2017-02-26T04:41:15.213Z,72.8
2017-02-26T04:42:25.987Z,72.52
2017-02-26T04:43:36.389Z,72.8
2017-02-26T04:44:46.368Z,72.89
2017-02-26T04:45:56.730Z,72.71
2017-02-26T04:47:06.737Z,72.61
2017-02-26T04:48:17.125Z,72.71
2017-02-26T04:49:27.497Z,72.8
2017-02-26T04:50:38.287Z,72.89
2017-02-26T04:51:48.680Z,72.8
2017-02-26T04:52:58.288Z,72.71
2017-02-26T04:54:09.057Z,72.71
2017-02-26T04:55:19.436Z,72.52
2017-02-26T04:56:29.844Z,72.52
2017-02-26T04:57:40.624Z,72.61
2017-02-26T04:58:51.410Z,72.61
2017-02-26T05:00:02.193Z,72.61
2017-02-26T05:01:12.583Z,72.61
2017-02-26T05:02:23.355Z,72.61
2017-02-26T05:03:34.122Z,72.71
2017-02-26T05:04:44.493Z,72.42
2017-02-26T05:05:55.287Z,72.61
2017-02-26T05:07:05.709Z,72.61
2017-02-26T05:08:16.488Z,72.71
2017-02-26T05:09:26.871Z,72.8
2017-02-26T05:10:37.658Z,72.52
2017-02-26T05:11:48.433Z,71.85
2017-02-26T05:12:59.201Z,72.04
2017-02-26T05:14:08.788Z,72.52
2017-02-26T05:15:19.164Z,72.23
2017-02-26T05:16:29.541Z,72.27
2017-02-26T05:17:39.909Z,71.98
2017-02-26T05:18:50.693Z,71.98
2017-02-26T05:20:01.076Z,72.17
2017-02-26T05:21:10.677Z,72.17
2017-02-26T05:22:20.669Z,72.08
2017-02-26T05:23:31.452Z,72.27
2017-02-26T05:24:42.224Z,72.36
2017-02-26T05:25:52.592Z,72.36
2017-02-26T05:27:03.017Z,71.8
2017-02-26T05:28:13.388Z,71.98
2017-02-26T05:29:23.771Z,71.8
2017-02-26T05:30:34.150Z,71.98
2017-02-26T05:31:44.917Z,72.08
2017-02-26T05:32:55.675Z,72.08
2017-02-26T05:34:05.258Z,72.08
2017-02-26T05:35:15.270Z,72.08
2017-02-26T05:36:25.651Z,71.8
2017-02-26T05:37:35.625Z,71.89
2017-02-26T05:38:46.379Z,71.98
2017-02-26T05:39:56.371Z,72.08
2017-02-26T05:41:06.362Z,71.89
2017-02-26T05:42:17.146Z,72.08
2017-02-26T05:43:27.519Z,72.08
2017-02-26T05:44:37.896Z,71.7
2017-02-26T05:45:48.255Z,71.98
2017-02-26T05:46:57.474Z,71.98
2017-02-26T05:48:07.851Z,71.8
2017-02-26T05:49:18.630Z,71.8
2017-02-26T05:50:29.417Z,72.08
2017-02-26T05:51:39.830Z,71.8
2017-02-26T05:52:50.195Z,71.89
2017-02-26T05:54:00.596Z,71.92
2017-02-26T05:55:10.597Z,71.92
2017-02-26T05:56:21.386Z,72.11
2017-02-26T05:57:32.157Z,71.83
2017-02-26T05:58:42.161Z,71.45
2017-02-26T05:59:52.570Z,71.83
2017-02-26T06:01:02.936Z,71.83
2017-02-26T06:02:13.707Z,71.83
2017-02-26T06:03:24.491Z,71.92
2017-02-26T06:04:34.536Z,71.45
2017-02-26T06:05:45.307Z,71.92
2017-02-26T06:06:56.101Z,71.64
2017-02-26T06:08:06.463Z,71.73
2017-02-26T06:09:17.263Z,71.64
2017-02-26T06:10:28.045Z,71.26
2017-02-26T06:11:38.848Z,71.45
2017-02-26T06:12:49.627Z,71.92
2017-02-26T06:14:00.408Z,71.83
2017-02-26T06:15:10.789Z,71.73
2017-02-26T06:16:21.163Z,71.73
2017-02-26T06:17:30.783Z,71.48
2017-02-26T06:18:40.797Z,72.06
2017-02-26T06:19:51.210Z,71.67
2017-02-26T06:21:02.013Z,71.58
2017-02-26T06:22:12.618Z,71.58
2017-02-26T06:23:23.008Z,71.67
2017-02-26T06:24:33.791Z,71.67
2017-02-26T06:25:43.781Z,71.58
2017-02-26T06:26:54.554Z,71.77
2017-02-26T06:28:05.325Z,72.06
2017-02-26T06:29:16.143Z,72.06
2017-02-26T06:30:26.528Z,71.67
2017-02-26T06:31:37.319Z,71.77
2017-02-26T06:32:47.291Z,71.58
2017-02-26T06:33:57.313Z,71.67
2017-02-26T06:35:07.297Z,72.06
2017-02-26T06:36:17.716Z,72.06
2017-02-26T06:37:28.500Z,71.86
2017-02-26T06:38:38.881Z,71.86
2017-02-26T06:39:49.678Z,71.86
2017-02-26T06:40:59.664Z,72.06
2017-02-26T06:42:09.650Z,72.06
2017-02-26T06:43:20.447Z,71.86
2017-02-26T06:44:30.436Z,72.15
2017-02-26T06:45:40.419Z,71.9
2017-02-26T06:46:50.812Z,72
2017-02-26T06:48:01.192Z,72.09
2017-02-26T06:49:11.580Z,72.19
2017-02-26T06:50:22.356Z,71.81
2017-02-26T06:51:32.361Z,72
2017-02-26T06:52:43.135Z,72.09
2017-02-26T06:53:53.931Z,71.71
2017-02-26T06:55:04.935Z,71.52
2017-02-26T06:56:15.319Z,71.43
2017-02-26T06:57:25.329Z,71.94
2017-02-26T06:58:35.707Z,71.75
2017-02-26T06:59:46.512Z,71.94
2017-02-26T07:00:57.302Z,71.84
2017-02-26T07:02:07.292Z,71.84
2017-02-26T07:03:17.671Z,71.18
2017-02-26T07:04:28.457Z,71.56
2017-02-26T07:05:39.246Z,71.66
2017-02-26T07:06:49.627Z,71.5
2017-02-26T07:07:59.995Z,71.78
2017-02-26T07:09:10.404Z,71.02
2017-02-26T07:10:21.163Z,71.31
2017-02-26T07:11:31.962Z,71.31
2017-02-26T07:12:42.796Z,70.64
2017-02-26T07:13:53.190Z,71.15
2017-02-26T07:15:03.972Z,71.15
2017-02-26T07:16:14.753Z,70.68
2017-02-26T07:17:24.738Z,71.15
2017-02-26T07:18:35.110Z,71.06
2017-02-26T07:19:45.903Z,70.87
2017-02-26T07:20:56.693Z,71.25
2017-02-26T07:22:07.541Z,71.82
2017-02-26T07:23:17.537Z,71.63
2017-02-26T07:24:28.303Z,71.44
2017-02-26T07:25:39.090Z,71.25
2017-02-26T07:26:49.886Z,71.82
2017-02-26T07:28:00.668Z,71.91
2017-02-26T07:29:10.663Z,71.91
2017-02-26T07:30:21.452Z,71.91
2017-02-26T07:31:31.847Z,71.53
2017-02-26T07:32:42.631Z,71.82
2017-02-26T07:33:53.427Z,71.82
2017-02-26T07:35:03.459Z,71.53
2017-02-26T07:36:14.243Z,71.63
2017-02-26T07:37:25.025Z,71.72
2017-02-26T07:38:35.809Z,71.72
2017-02-26T07:39:46.188Z,71.82
2017-02-26T07:40:56.587Z,71.91
2017-02-26T07:42:05.793Z,72.2
2017-02-26T07:43:16.217Z,72.01
2017-02-26T07:44:26.607Z,71.82
2017-02-26T07:45:36.610Z,71.53
2017-02-26T07:46:47.004Z,71.63
2017-02-26T07:47:56.993Z,71.82
2017-02-26T07:49:07.393Z,71.53
2017-02-26T07:50:17.376Z,72.11
2017-02-26T07:51:27.792Z,71.86
2017-02-26T07:52:38.580Z,71.95
2017-02-26T07:53:48.958Z,72.05
2017-02-26T07:54:59.342Z,71.86
2017-02-26T07:56:09.348Z,71.86
2017-02-26T07:57:19.342Z,71.57
2017-02-26T07:58:29.729Z,71.57
2017-02-26T07:59:40.508Z,71.67
2017-02-26T08:00:51.290Z,71.67
2017-02-26T08:02:02.064Z,71.32
2017-02-26T08:03:12.445Z,71.03
2017-02-26T08:04:22.836Z,71.32
2017-02-26T08:05:32.819Z,70.94
2017-02-26T08:06:43.636Z,71.22
2017-02-26T08:07:54.417Z,71.03
2017-02-26T08:09:04.828Z,70.88
2017-02-26T08:10:15.199Z,70.59
2017-02-26T08:11:25.961Z,70.88
2017-02-26T08:12:36.755Z,70.88
2017-02-26T08:13:47.537Z,70.88
2017-02-26T08:14:57.927Z,70.72
2017-02-26T08:16:08.705Z,70.63
2017-02-26T08:17:19.106Z,70.82
2017-02-26T08:18:29.877Z,70.72
2017-02-26T08:19:39.874Z,70.72
2017-02-26T08:20:50.661Z,70.92
2017-02-26T08:22:01.442Z,70.82
2017-02-26T08:23:11.816Z,70.92
2017-02-26T08:24:22.605Z,71.01
2017-02-26T08:25:32.578Z,70.95
2017-02-26T08:26:42.965Z,70.19
2017-02-26T08:27:53.357Z,70.19
2017-02-26T08:29:02.967Z,70.22
2017-02-26T08:30:13.353Z,70.03
2017-02-26T08:31:23.740Z,69.93
2017-02-26T08:32:34.528Z,69.84
2017-02-26T08:33:44.936Z,69.65
2017-02-26T08:34:55.727Z,69.65
2017-02-26T08:36:06.115Z,69.49
2017-02-26T08:37:16.505Z,69.87
2017-02-26T08:38:26.897Z,69.49
2017-02-26T08:39:37.681Z,69.68
2017-02-26T08:40:48.081Z,69.87
2017-02-26T08:41:58.463Z,69.62
2017-02-26T08:43:09.295Z,69.72
2017-02-26T08:44:20.084Z,69.72
2017-02-26T08:45:30.881Z,69.82
2017-02-26T08:46:41.644Z,69.72
2017-02-26T08:47:52.430Z,70.01
2017-02-26T08:49:03.226Z,69.72
2017-02-26T08:50:14.004Z,69.62
2017-02-26T08:51:24.426Z,69.56
2017-02-26T08:52:35.229Z,69.66
2017-02-26T08:53:45.645Z,69.56
2017-02-26T08:54:56.034Z,69.85
2017-02-26T08:56:06.413Z,69.76
2017-02-26T08:57:17.199Z,69.76
2017-02-26T08:58:27.193Z,70.14
2017-02-26T08:59:37.570Z,70.33
2017-02-26T09:00:48.375Z,70.71
2017-02-26T09:01:58.001Z,70.71
2017-02-26T09:03:08.833Z,71
2017-02-26T09:04:19.621Z,71
2017-02-26T09:05:30.057Z,71.09
2017-02-26T09:06:40.521Z,71.25
2017-02-26T09:07:51.316Z,71.25
2017-02-26T09:09:01.729Z,71.44
2017-02-26T09:10:12.523Z,71.44
2017-02-26T09:11:23.311Z,71.82
2017-02-26T09:12:32.533Z,70.87
2017-02-26T09:13:42.931Z,71.15
2017-02-26T09:14:53.340Z,71.06
2017-02-26T09:16:04.148Z,71.09
2017-02-26T09:17:14.558Z,70.33
2017-02-26T09:18:24.551Z,70.33
2017-02-26T09:19:34.566Z,70.33
2017-02-26T09:20:45.360Z,70.33
2017-02-26T09:21:55.781Z,70.61
2017-02-26T09:23:06.229Z,70.52
2017-02-26T09:24:16.679Z,70.23
2017-02-26T09:25:27.073Z,70.42
2017-02-26T09:26:37.461Z,70.61
2017-02-26T09:27:47.453Z,70.42
2017-02-26T09:28:57.491Z,70.33
2017-02-26T09:30:07.936Z,70.61
2017-02-26T09:31:18.740Z,69.98
2017-02-26T09:32:29.131Z,69.79
2017-02-26T09:33:39.522Z,69.79
2017-02-26T09:34:49.920Z,69.7
2017-02-26T09:36:00.306Z,69.98
2017-02-26T09:37:11.104Z,69.6
2017-02-26T09:38:21.535Z,69.64
2017-02-26T09:39:32.317Z,69.64
2017-02-26T09:40:43.108Z,69.73
2017-02-26T09:41:53.879Z,69.64
2017-02-26T09:43:04.696Z,69.64
2017-02-26T09:44:15.502Z,69.92
2017-02-26T09:45:25.935Z,70.11
2017-02-26T09:46:35.939Z,70.11
2017-02-26T09:47:46.732Z,69.82
2017-02-26T09:48:56.716Z,69.82
2017-02-26T09:50:07.107Z,70.01
2017-02-26T09:51:17.500Z,69.64
2017-02-26T09:52:28.280Z,70.15
2017-02-26T09:53:39.108Z,69.92
2017-02-26T09:54:49.503Z,70.62
2017-02-26T09:56:00.288Z,70.21
2017-02-26T09:57:11.079Z,70.68
2017-02-26T09:58:21.891Z,71.55
2017-02-26T09:59:32.282Z,71.32
2017-02-26T10:00:43.074Z,71.13
2017-02-26T10:01:53.475Z,70.4
2017-02-26T10:03:04.271Z,70.3
2017-02-26T10:04:14.685Z,70.11
2017-02-26T10:05:25.713Z,70.11
2017-02-26T10:06:36.107Z,70.5
2017-02-26T10:07:46.878Z,70.97
2017-02-26T10:08:57.673Z,70.5
2017-02-26T10:10:08.462Z,70.68
2017-02-26T10:11:19.238Z,70.72
2017-02-26T10:12:29.655Z,69.73
2017-02-26T10:13:40.506Z,70.15
2017-02-26T10:14:50.508Z,70.11
2017-02-26T10:16:01.307Z,70.24
2017-02-26T10:17:11.736Z,70.11
2017-02-26T10:18:21.774Z,70.4
2017-02-26T10:19:32.589Z,70.3
2017-02-26T10:20:42.576Z,70.3
2017-02-26T10:21:53.385Z,70.43
2017-02-26T10:23:04.160Z,70.15
2017-02-26T10:24:14.944Z,69.76
2017-02-26T10:25:25.323Z,70.15
2017-02-26T10:26:35.718Z,69.67
2017-02-26T10:27:46.537Z,70.18
2017-02-26T10:28:56.953Z,70.15
2017-02-26T10:30:06.995Z,69.99
2017-02-26T10:31:16.991Z,70.09
2017-02-26T10:32:27.414Z,70.18
2017-02-26T10:33:37.815Z,70.09
2017-02-26T10:34:48.632Z,70.09
2017-02-26T10:35:58.629Z,69.99
2017-02-26T10:37:09.437Z,69.8
2017-02-26T10:38:19.447Z,69.8
2017-02-26T10:39:29.868Z,70.09
2017-02-26T10:40:40.673Z,70.09
2017-02-26T10:41:51.453Z,70.18
2017-02-26T10:43:01.864Z,69.89
2017-02-26T10:44:11.864Z,69.89
2017-02-26T10:45:22.683Z,69.8
2017-02-26T10:46:33.096Z,69.7
2017-02-26T10:47:42.683Z,69.54
2017-02-26T10:48:52.711Z,69.64
2017-02-26T10:50:03.510Z,69.64
2017-02-26T10:51:14.338Z,69.83
2017-02-26T10:52:25.154Z,69.83
2017-02-26T10:53:35.966Z,69.74
2017-02-26T10:54:46.358Z,70.31
2017-02-26T10:55:57.184Z,70.21
2017-02-26T10:57:07.979Z,70.31
2017-02-26T10:58:18.772Z,69.93
2017-02-26T10:59:29.149Z,70.03
2017-02-26T11:00:38.802Z,69.54
2017-02-26T11:01:49.197Z,69.74
2017-02-26T11:02:59.979Z,69.74
2017-02-26T11:04:10.427Z,70.03
2017-02-26T11:05:21.193Z,69.83
2017-02-26T11:06:31.620Z,69.83
2017-02-26T11:07:42.416Z,69.74
2017-02-26T11:08:52.794Z,69.74
2017-02-26T11:10:03.173Z,70.12
2017-02-26T11:11:13.581Z,69.93
2017-02-26T11:12:24.369Z,70.03
2017-02-26T11:13:35.205Z,70.12
2017-02-26T11:14:45.612Z,70.03
2017-02-26T11:15:56.385Z,69.87
2017-02-26T11:17:07.190Z,69.48
2017-02-26T11:18:16.787Z,70.06
2017-02-26T11:19:26.803Z,69.58
2017-02-26T11:20:36.798Z,69.68
2017-02-26T11:21:47.203Z,69.87
2017-02-26T11:22:57.979Z,69.68
2017-02-26T11:24:08.778Z,69.68
2017-02-26T11:25:19.217Z,69.68
2017-02-26T11:26:29.644Z,69.77
2017-02-26T11:27:40.426Z,70.06
2017-02-26T11:28:51.192Z,69.48
2017-02-26T11:30:01.989Z,69.62
2017-02-26T11:31:12.789Z,69.13
2017-02-26T11:32:22.807Z,69.42
2017-02-26T11:33:33.619Z,69.81
2017-02-26T11:34:44.005Z,69.81
2017-02-26T11:35:54.394Z,69.71
2017-02-26T11:37:05.183Z,69.71
2017-02-26T11:38:15.181Z,69.71
2017-02-26T11:39:26.017Z,69.62
2017-02-26T11:40:36.434Z,69.71
2017-02-26T11:41:47.237Z,69.52
2017-02-26T11:42:57.656Z,69.65
2017-02-26T11:44:08.465Z,69.93
2017-02-26T11:45:18.871Z,69.93
2017-02-26T11:46:29.284Z,70.13
2017-02-26T11:47:39.714Z,70.32
2017-02-26T11:48:50.540Z,69.81
2017-02-26T11:50:00.983Z,70.86
2017-02-26T11:51:11.808Z,70.67
2017-02-26T11:52:22.593Z,70.83
2017-02-26T11:53:33.020Z,71.21
2017-02-26T11:54:43.418Z,71.02
2017-02-26T11:55:54.204Z,71.21
2017-02-26T11:57:04.584Z,71.11
2017-02-26T11:58:15.598Z,71.11
2017-02-26T11:59:26.415Z,71.02
2017-02-26T12:00:36.825Z,71.11
2017-02-26T12:01:47.259Z,70.89
2017-02-26T12:02:58.063Z,71.11
2017-02-26T12:04:08.490Z,70.89
2017-02-26T12:05:18.071Z,71.21
2017-02-26T12:06:28.509Z,71.02
2017-02-26T12:07:38.943Z,70.64
2017-02-26T12:08:49.350Z,70.64
2017-02-26T12:09:59.738Z,70.73
2017-02-26T12:11:10.570Z,71.31
2017-02-26T12:12:21.208Z,71.11
2017-02-26T12:13:31.617Z,71.17
2017-02-26T12:14:42.007Z,71.08
2017-02-26T12:15:52.792Z,70.89
2017-02-26T12:17:03.197Z,71.31
2017-02-26T12:18:13.604Z,71.17
2017-02-26T12:19:23.602Z,71.27
2017-02-26T12:20:33.592Z,71.31
2017-02-26T12:21:44.413Z,71.31
2017-02-26T12:22:54.804Z,70.54
2017-02-26T12:24:04.801Z,70.35
2017-02-26T12:25:15.594Z,70.35
2017-02-26T12:26:25.611Z,70.83
2017-02-26T12:27:36.423Z,70.44
2017-02-26T12:28:46.824Z,70.54
2017-02-26T12:29:57.206Z,70.83
2017-02-26T12:31:07.605Z,70.64
2017-02-26T12:32:18.008Z,70.25
2017-02-26T12:33:28.389Z,70.92
2017-02-26T12:34:39.184Z,71.21
2017-02-26T12:35:49.596Z,71.11
2017-02-26T12:36:59.987Z,71.21
2017-02-26T12:38:10.802Z,71.69
2017-02-26T12:39:21.205Z,71.31
2017-02-26T12:40:31.210Z,71.69
2017-02-26T12:41:41.599Z,71.5
2017-02-26T12:42:52.385Z,71.11
2017-02-26T12:44:03.163Z,71.66
2017-02-26T12:45:13.936Z,71.94
2017-02-26T12:46:24.726Z,72.03
2017-02-26T12:47:35.141Z,71.94
2017-02-26T12:48:45.954Z,71.66
2017-02-26T12:49:56.751Z,71.98
2017-02-26T12:51:07.515Z,72.07
2017-02-26T12:52:18.311Z,72.27
2017-02-26T12:53:29.101Z,71.69
2017-02-26T12:54:39.896Z,71.88
2017-02-26T12:55:50.285Z,71.31
2017-02-26T12:57:00.669Z,71.4
2017-02-26T12:58:11.459Z,71.31
2017-02-26T12:59:21.455Z,71.69
2017-02-26T13:00:31.858Z,71.31
2017-02-26T13:01:41.897Z,71.31
2017-02-26T13:02:52.696Z,71.59
2017-02-26T13:04:03.101Z,71.5
2017-02-26T13:05:13.114Z,71.59
2017-02-26T13:06:23.495Z,71.59
2017-02-26T13:07:33.886Z,71.5
2017-02-26T13:08:44.258Z,71.53
2017-02-26T13:09:55.034Z,71.5
2017-02-26T13:11:05.428Z,71.5
2017-02-26T13:12:16.223Z,71.5
2017-02-26T13:13:26.991Z,71.59
2017-02-26T13:14:37.783Z,71.59
2017-02-26T13:15:48.468Z,71.5
2017-02-26T13:16:59.116Z,71.69
2017-02-26T13:18:09.920Z,71.59
2017-02-26T13:19:20.715Z,71.59
2017-02-26T13:20:31.525Z,71.59
2017-02-26T13:21:42.326Z,71.31
2017-02-26T13:22:53.111Z,71.5
2017-02-26T13:24:03.492Z,71.69
2017-02-26T13:25:13.540Z,71.4
2017-02-26T13:26:23.951Z,71.31
2017-02-26T13:27:34.766Z,71.59
2017-02-26T13:28:45.150Z,71.78
2017-02-26T13:29:55.955Z,71.5
2017-02-26T13:31:06.781Z,71.59
2017-02-26T13:32:17.598Z,71.21
2017-02-26T13:33:28.000Z,71.21
2017-02-26T13:34:38.781Z,71.17
2017-02-26T13:35:49.164Z,71.21
2017-02-26T13:36:59.186Z,71.78
2017-02-26T13:38:09.992Z,72.07
2017-02-26T13:39:19.974Z,71.94
2017-02-26T13:40:30.394Z,72.03
2017-02-26T13:41:41.171Z,71.84
2017-02-26T13:42:51.950Z,71.75
2017-02-26T13:44:01.572Z,72.52
2017-02-26T13:45:11.986Z,72.32
2017-02-26T13:46:22.775Z,72.32
2017-02-26T13:47:33.547Z,72.32
2017-02-26T13:48:44.342Z,72.61
2017-02-26T13:49:55.144Z,72.23
2017-02-26T13:51:05.565Z,72.42
2017-02-26T13:52:16.379Z,72.23
2017-02-26T13:53:27.174Z,72.13
2017-02-26T13:54:37.957Z,72.29
2017-02-26T13:55:48.359Z,72.32
2017-02-26T13:56:58.753Z,72.13
2017-02-26T13:58:09.560Z,72.48
2017-02-26T13:59:19.975Z,72.38
2017-02-26T14:00:30.745Z,72.29
2017-02-26T14:01:41.549Z,72.29
2017-02-26T14:02:52.336Z,72
2017-02-26T14:04:03.125Z,72.38
2017-02-26T14:05:13.516Z,72.29
2017-02-26T14:06:23.924Z,72.38
2017-02-26T14:07:34.736Z,71.81
2017-02-26T14:08:45.525Z,71.94
2017-02-26T14:09:56.356Z,71.84
2017-02-26T14:11:06.746Z,71.75
2017-02-26T14:12:17.126Z,72.03
2017-02-26T14:13:27.122Z,72
2017-02-26T14:14:37.534Z,72.23
2017-02-26T14:15:47.939Z,72.29
2017-02-26T14:16:57.946Z,72.38
2017-02-26T14:18:08.754Z,72.42
2017-02-26T14:19:19.530Z,72.09
2017-02-26T14:20:30.315Z,72.52
2017-02-26T14:21:40.726Z,72.29
2017-02-26T14:22:51.163Z,72.58
2017-02-26T14:24:01.954Z,72.58
2017-02-26T14:25:11.957Z,72.96
2017-02-26T14:26:22.768Z,72.58
2017-02-26T14:27:33.558Z,73.05
2017-02-26T14:28:44.369Z,73.05
2017-02-26T14:29:55.184Z,72.92
2017-02-26T14:31:05.620Z,72.73
2017-02-26T14:32:16.388Z,72.73
2017-02-26T14:33:27.196Z,72.73
2017-02-26T14:34:37.605Z,72.73
2017-02-26T14:35:48.396Z,72.67
2017-02-26T14:36:58.783Z,72.67
2017-02-26T14:38:09.586Z,72.77
2017-02-26T14:39:20.378Z,72.86
2017-02-26T14:40:30.789Z,72.73
2017-02-26T14:41:41.185Z,72.73
2017-02-26T14:42:51.978Z,72.54
2017-02-26T14:44:02.400Z,73.21
2017-02-26T14:45:12.463Z,73.4
2017-02-26T14:46:22.855Z,73.4
2017-02-26T14:47:33.671Z,73.4
2017-02-26T14:48:44.461Z,73.3
2017-02-26T14:49:55.253Z,73.5
2017-02-26T14:51:05.661Z,73.11
2017-02-26T14:52:16.075Z,73.3
2017-02-26T14:53:26.872Z,73.5
2017-02-26T14:54:37.290Z,73.5
2017-02-26T14:55:47.686Z,73.5
2017-02-26T14:56:58.455Z,73.21
2017-02-26T14:58:09.241Z,73.5
2017-02-26T14:59:19.652Z,73.21
2017-02-26T15:00:29.300Z,73.02
2017-02-26T15:01:40.115Z,73.02
2017-02-26T15:02:50.947Z,72.92
2017-02-26T15:04:01.762Z,73.11
2017-02-26T15:05:12.142Z,72.92
2017-02-26T15:06:22.919Z,73.3
2017-02-26T15:07:33.709Z,73.21
2017-02-26T15:08:44.535Z,73.21
2017-02-26T15:09:55.332Z,73.59
2017-02-26T15:11:05.331Z,73.69
2017-02-26T15:12:16.137Z,72.5
2017-02-26T15:13:25.768Z,73.79
2017-02-26T15:14:35.384Z,72.73
2017-02-26T15:15:45.392Z,72.98
2017-02-26T15:16:55.802Z,73.27
2017-02-26T15:18:06.192Z,73.36
2017-02-26T15:19:16.605Z,73.27
2017-02-26T15:20:26.604Z,73.46
2017-02-26T15:21:37.383Z,73.46
2017-02-26T15:22:48.169Z,73.27
2017-02-26T15:23:58.589Z,73.27
2017-02-26T15:25:09.384Z,73.36
2017-02-26T15:26:20.206Z,73.36
2017-02-26T15:27:30.974Z,73.23
2017-02-26T15:28:41.776Z,73.23
2017-02-26T15:29:52.597Z,73.04
2017-02-26T15:31:03.006Z,73.14
2017-02-26T15:32:12.598Z,73.23
2017-02-26T15:33:23.037Z,73.33
2017-02-26T15:34:33.486Z,73.14
2017-02-26T15:35:43.531Z,73.14
2017-02-26T15:36:53.924Z,73.23
2017-02-26T15:38:04.324Z,73.33
2017-02-26T15:39:14.748Z,73.43
2017-02-26T15:40:25.153Z,73.43
2017-02-26T15:41:35.615Z,73.33